createdAt,value
2017-04-05T00:00:46.963Z,6.07
2017-04-05T00:01:48.384Z,6.14
2017-04-05T00:02:50.595Z,6.22
2017-04-05T00:03:52.024Z,6.36
2017-04-05T00:04:53.447Z,6.40
2017-04-05T00:05:55.559Z,6.32
2017-04-05T00:06:57.001Z,6.30
2017-04-05T00:07:58.423Z,6.28
2017-04-05T00:08:59.841Z,6.19
2017-04-05T00:10:01.260Z,6.01
2017-04-05T00:11:02.685Z,6.10
2017-04-05T00:12:04.102Z,6.09
2017-04-05T00:13:06.316Z,6.14
2017-04-05T00:14:07.741Z,6.25
2017-04-05T00:15:10.104Z,6.00
2017-04-05T00:16:11.523Z,5.83
2017-04-05T00:17:12.949Z,6.06
2017-04-05T00:18:14.366Z,6.09
2017-04-05T00:19:15.794Z,6.13
2017-04-05T00:20:17.211Z,6.03
2017-04-05T00:21:18.629Z,5.71
2017-04-05T00:22:20.057Z,5.70
2017-04-05T00:23:21.477Z,5.78
2017-04-05T00:24:22.899Z,5.88
2017-04-05T00:25:24.320Z,5.81
2017-04-05T00:26:25.742Z,5.67
2017-04-05T00:27:27.163Z,5.71
2017-04-05T00:28:28.597Z,5.83
2017-04-05T00:29:30.018Z,5.59
2017-04-05T00:30:32.789Z,5.48
2017-04-05T00:31:34.210Z,5.48
2017-04-05T00:32:35.627Z,5.43
2017-04-05T00:33:37.050Z,5.71
2017-04-05T00:34:38.485Z,5.96
2017-04-05T00:35:39.899Z,5.88
2017-04-05T00:36:41.317Z,5.89
2017-04-05T00:37:42.742Z,5.96
2017-04-05T00:38:44.172Z,5.77
2017-04-05T00:39:45.596Z,5.85
2017-04-05T00:40:47.016Z,5.82
2017-04-05T00:41:48.440Z,6.00
2017-04-05T00:42:49.860Z,5.86
2017-04-05T00:43:51.279Z,5.78
2017-04-05T00:44:52.699Z,5.56
2017-04-05T00:45:54.119Z,5.32
2017-04-05T00:46:55.540Z,5.22
2017-04-05T00:47:56.969Z,5.40
2017-04-05T00:48:58.388Z,5.45
2017-04-05T00:49:59.810Z,5.45
2017-04-05T00:51:01.240Z,5.67
2017-04-05T00:52:02.670Z,5.67
2017-04-05T00:53:04.094Z,5.48
2017-04-05T00:54:05.522Z,5.49
2017-04-05T00:55:06.943Z,5.57
2017-04-05T00:56:08.371Z,5.45
2017-04-05T00:57:09.798Z,5.52
2017-04-05T00:58:11.219Z,5.16
2017-04-05T00:59:12.635Z,5.09
2017-04-05T01:00:14.058Z,5.07
2017-04-05T01:01:15.486Z,5.22
2017-04-05T01:02:16.911Z,5.25
2017-04-05T01:03:18.337Z,5.09
2017-04-05T01:04:19.761Z,4.98
2017-04-05T01:05:21.182Z,5.04
2017-04-05T01:06:22.615Z,5.35
2017-04-05T01:07:24.035Z,5.13
2017-04-05T01:08:25.451Z,4.89
2017-04-05T01:09:27.666Z,4.98
2017-04-05T01:10:29.084Z,5.35
2017-04-05T01:11:30.509Z,5.09
2017-04-05T01:12:31.931Z,5.02
2017-04-05T01:13:33.359Z,5.05
2017-04-05T01:14:34.780Z,4.99
2017-04-05T01:15:36.209Z,4.95
2017-04-05T01:16:37.627Z,5.17
2017-04-05T01:17:39.055Z,5.31
2017-04-05T01:18:40.476Z,5.35
2017-04-05T01:19:41.906Z,5.25
2017-04-05T01:20:43.336Z,5.48
2017-04-05T01:21:44.764Z,5.48
2017-04-05T01:22:46.199Z,4.91
2017-04-05T01:23:47.617Z,4.98
2017-04-05T01:24:49.038Z,5.02
2017-04-05T01:25:50.460Z,5.04
2017-04-05T01:26:52.466Z,5.31
2017-04-05T01:27:53.243Z,5.19
2017-04-05T01:28:54.660Z,5.16
2017-04-05T01:29:56.081Z,5.23
2017-04-05T01:30:57.500Z,5.46
2017-04-05T01:31:58.928Z,5.30
2017-04-05T01:33:00.367Z,5.22
2017-04-05T01:34:01.790Z,5.20
2017-04-05T01:35:03.216Z,4.99
2017-04-05T01:36:04.643Z,4.98
2017-04-05T01:37:06.068Z,5.35
2017-04-05T01:38:07.489Z,5.41
2017-04-05T01:39:09.588Z,5.17
2017-04-05T01:40:11.005Z,5.04
2017-04-05T01:41:12.428Z,5.07
2017-04-05T01:42:13.848Z,5.12
2017-04-05T01:43:15.285Z,5.14
2017-04-05T01:44:16.702Z,5.04
2017-04-05T01:45:18.121Z,4.98
2017-04-05T01:46:19.551Z,5.01
2017-04-05T01:47:20.975Z,4.88
2017-04-05T01:48:22.397Z,4.92
2017-04-05T01:49:23.823Z,4.89
2017-04-05T01:50:25.247Z,4.95
2017-04-05T01:51:26.669Z,4.99
2017-04-05T01:52:28.086Z,5.04
2017-04-05T01:53:29.516Z,4.99
2017-04-05T01:54:30.942Z,4.76
2017-04-05T01:55:32.358Z,4.65
2017-04-05T01:56:33.781Z,4.46
2017-04-05T01:57:35.197Z,4.43
2017-04-05T01:58:36.624Z,4.25
2017-04-05T01:59:38.047Z,4.24
2017-04-05T02:00:39.465Z,4.08
2017-04-05T02:01:40.891Z,4.14
2017-04-05T02:02:42.312Z,4.21
2017-04-05T02:03:43.730Z,4.26
2017-04-05T02:04:45.151Z,4.40
2017-04-05T02:05:46.574Z,4.44
2017-04-05T02:06:47.991Z,4.32
2017-04-05T02:07:49.412Z,4.18
2017-04-05T02:08:50.835Z,4.12
2017-04-05T02:09:52.258Z,4.15
2017-04-05T02:10:53.680Z,4.42
2017-04-05T02:11:55.099Z,4.44
2017-04-05T02:12:56.521Z,4.79
2017-04-05T02:13:57.945Z,4.91
2017-04-05T02:14:59.360Z,5.13
2017-04-05T02:16:00.779Z,4.99
2017-04-05T02:17:02.195Z,4.77
2017-04-05T02:18:03.620Z,4.50
2017-04-05T02:19:05.042Z,4.54
2017-04-05T02:20:06.458Z,4.73
2017-04-05T02:21:07.880Z,4.80
2017-04-05T02:22:09.318Z,4.84
2017-04-05T02:23:10.740Z,4.95
2017-04-05T02:24:12.159Z,5.09
2017-04-05T02:25:13.689Z,5.28
2017-04-05T02:26:15.124Z,5.04
2017-04-05T02:27:16.553Z,5.05
2017-04-05T02:28:17.977Z,5.14
2017-04-05T02:29:19.407Z,5.14
2017-04-05T02:30:20.828Z,5.01
2017-04-05T02:31:22.249Z,5.05
2017-04-05T02:32:23.668Z,5.05
2017-04-05T02:33:25.090Z,4.76
2017-04-05T02:34:26.510Z,4.91
2017-04-05T02:35:27.929Z,4.73
2017-04-05T02:36:29.351Z,4.64
2017-04-05T02:37:30.775Z,4.61
2017-04-05T02:38:32.820Z,4.64
2017-04-05T02:39:34.241Z,4.73
2017-04-05T02:40:35.670Z,4.73
2017-04-05T02:41:37.089Z,4.65
2017-04-05T02:42:38.512Z,4.64
2017-04-05T02:43:39.935Z,4.57
2017-04-05T02:44:41.364Z,4.62
2017-04-05T02:45:42.781Z,4.46
2017-04-05T02:46:44.198Z,4.42
2017-04-05T02:47:45.619Z,4.50
2017-04-05T02:48:47.040Z,4.37
2017-04-05T02:49:48.461Z,4.25
2017-04-05T02:50:49.888Z,4.26
2017-04-05T02:51:51.312Z,4.29
2017-04-05T02:52:52.741Z,4.40
2017-04-05T02:53:54.162Z,4.34
2017-04-05T02:54:55.664Z,4.29
2017-04-05T02:55:57.082Z,4.24
2017-04-05T02:56:58.513Z,4.46
2017-04-05T02:57:59.975Z,4.55
2017-04-05T02:59:01.414Z,4.69
2017-04-05T03:00:02.836Z,4.88
2017-04-05T03:01:04.264Z,4.86
2017-04-05T03:02:05.681Z,4.96
2017-04-05T03:03:07.100Z,5.04
2017-04-05T03:04:08.515Z,4.96
2017-04-05T03:05:09.942Z,4.92
2017-04-05T03:06:11.460Z,5.01
2017-04-05T03:07:12.883Z,5.04
2017-04-05T03:08:14.300Z,4.99
2017-04-05T03:09:15.758Z,4.96
2017-04-05T03:10:17.190Z,4.77
2017-04-05T03:11:18.612Z,4.99
2017-04-05T03:12:21.015Z,5.10
2017-04-05T03:13:22.433Z,4.92
2017-04-05T03:14:23.863Z,4.75
2017-04-05T03:15:25.276Z,4.62
2017-04-05T03:16:26.700Z,4.46
2017-04-05T03:17:28.120Z,4.51
2017-04-05T03:18:29.541Z,4.64
2017-04-05T03:19:30.964Z,4.58
2017-04-05T03:20:32.380Z,4.65
2017-04-05T03:21:33.799Z,4.89
2017-04-05T03:22:35.223Z,5.01
2017-04-05T03:23:36.637Z,4.88
2017-04-05T03:24:38.062Z,4.61
2017-04-05T03:25:39.485Z,4.36
2017-04-05T03:26:40.899Z,4.33
2017-04-05T03:27:42.322Z,4.34
2017-04-05T03:28:43.750Z,4.33
2017-04-05T03:29:45.169Z,4.50
2017-04-05T03:30:46.594Z,4.52
2017-04-05T03:31:48.011Z,4.32
2017-04-05T03:32:49.442Z,4.34
2017-04-05T03:33:50.857Z,4.22
2017-04-05T03:34:52.278Z,4.43
2017-04-05T03:35:53.704Z,4.65
2017-04-05T03:36:55.127Z,4.77
2017-04-05T03:37:56.548Z,4.65
2017-04-05T03:38:57.971Z,4.62
2017-04-05T03:39:59.399Z,4.32
2017-04-05T03:41:00.843Z,4.18
2017-04-05T03:42:02.261Z,4.15
2017-04-05T03:43:03.680Z,4.06
2017-04-05T03:44:05.100Z,3.92
2017-04-05T03:45:06.522Z,3.79
2017-04-05T03:46:07.945Z,3.97
2017-04-05T03:47:09.363Z,4.32
2017-04-05T03:48:10.776Z,4.28
2017-04-05T03:49:12.200Z,4.26
2017-04-05T03:50:13.624Z,4.51
2017-04-05T03:51:15.047Z,4.55
2017-04-05T03:52:16.461Z,4.67
2017-04-05T03:53:17.891Z,4.58
2017-04-05T03:54:19.318Z,4.55
2017-04-05T03:55:20.741Z,4.55
2017-04-05T03:56:22.251Z,4.57
2017-04-05T03:57:23.681Z,4.44
2017-04-05T03:58:25.102Z,4.34
2017-04-05T03:59:26.517Z,4.28
2017-04-05T04:00:27.944Z,4.14
2017-04-05T04:01:29.373Z,4.08
2017-04-05T04:02:30.785Z,4.07
2017-04-05T04:03:32.206Z,4.06
2017-04-05T04:04:33.622Z,3.88
2017-04-05T04:05:35.044Z,4.03
2017-04-05T04:06:36.465Z,3.98
2017-04-05T04:07:37.879Z,3.94
2017-04-05T04:08:39.301Z,3.97
2017-04-05T04:09:40.723Z,3.97
2017-04-05T04:10:42.147Z,4.04
2017-04-05T04:11:43.574Z,4.29
2017-04-05T04:12:44.991Z,4.36
2017-04-05T04:13:46.408Z,4.32
2017-04-05T04:14:47.833Z,4.46
2017-04-05T04:15:49.262Z,4.29
2017-04-05T04:16:50.679Z,4.10
2017-04-05T04:17:52.996Z,4.21
2017-04-05T04:18:53.457Z,4.14
2017-04-05T04:19:54.876Z,4.04
2017-04-05T04:20:56.294Z,3.92
2017-04-05T04:21:57.716Z,4.03
2017-04-05T04:22:59.152Z,4.22
2017-04-05T04:24:00.568Z,4.33
2017-04-05T04:25:01.989Z,4.26
2017-04-05T04:26:03.411Z,4.44
2017-04-05T04:27:05.042Z,4.32
2017-04-05T04:28:06.477Z,3.83
2017-04-05T04:29:07.899Z,3.71
2017-04-05T04:30:10.208Z,3.78
2017-04-05T04:31:11.635Z,3.78
2017-04-05T04:32:13.061Z,3.86
2017-04-05T04:33:14.481Z,3.80
2017-04-05T04:34:17.841Z,3.75
2017-04-05T04:35:19.263Z,3.71
2017-04-05T04:36:20.684Z,3.50
2017-04-05T04:37:22.112Z,3.16
2017-04-05T04:38:23.532Z,3.20
2017-04-05T04:39:24.948Z,3.18
2017-04-05T04:40:26.372Z,3.23
2017-04-05T04:41:27.804Z,3.46
2017-04-05T04:42:29.224Z,3.72
2017-04-05T04:43:30.646Z,3.78
2017-04-05T04:44:32.068Z,3.83
2017-04-05T04:45:34.434Z,4.06
2017-04-05T04:46:35.862Z,4.26
2017-04-05T04:47:37.279Z,4.08
2017-04-05T04:48:38.698Z,4.32
2017-04-05T04:49:40.121Z,4.15
2017-04-05T04:50:41.547Z,4.07
2017-04-05T04:51:42.969Z,4.19
2017-04-05T04:52:44.392Z,4.28
2017-04-05T04:53:46.374Z,4.08
2017-04-05T04:54:47.798Z,3.92
2017-04-05T04:55:49.221Z,3.92
2017-04-05T04:56:50.647Z,4.08
2017-04-05T04:57:52.064Z,4.28
2017-04-05T04:58:53.486Z,4.36
2017-04-05T04:59:54.919Z,4.26
2017-04-05T05:00:56.344Z,4.33
2017-04-05T05:01:57.765Z,4.18
2017-04-05T05:02:59.193Z,4.14
2017-04-05T05:04:00.615Z,3.96
2017-04-05T05:05:02.044Z,4.18
2017-04-05T05:06:04.198Z,4.14
2017-04-05T05:07:05.626Z,4.28
2017-04-05T05:08:07.041Z,4.29
2017-04-05T05:09:08.461Z,4.16
2017-04-05T05:10:09.888Z,4.06
2017-04-05T05:11:11.312Z,3.82
2017-04-05T05:12:12.752Z,3.97
2017-04-05T05:13:14.174Z,4.18
2017-04-05T05:14:15.606Z,4.19
2017-04-05T05:15:17.030Z,4.29
2017-04-05T05:16:18.483Z,4.29
2017-04-05T05:17:19.895Z,3.83
2017-04-05T05:18:21.359Z,3.78
2017-04-05T05:19:22.777Z,4.06
2017-04-05T05:20:24.202Z,4.22
2017-04-05T05:21:25.639Z,4.19
2017-04-05T05:22:27.071Z,4.08
2017-04-05T05:23:28.499Z,4.08
2017-04-05T05:24:29.924Z,4.10
2017-04-05T05:25:31.346Z,4.08
2017-04-05T05:26:32.768Z,4.01
2017-04-05T05:27:34.191Z,3.94
2017-04-05T05:28:35.623Z,4.04
2017-04-05T05:29:37.040Z,4.21
2017-04-05T05:30:38.469Z,4.33
2017-04-05T05:31:39.899Z,4.32
2017-04-05T05:32:41.320Z,4.43
2017-04-05T05:33:42.753Z,4.59
2017-04-05T05:34:44.167Z,4.58
2017-04-05T05:35:45.601Z,4.72
2017-04-05T05:36:47.025Z,4.50
2017-04-05T05:37:48.446Z,4.64
2017-04-05T05:38:49.873Z,4.52
2017-04-05T05:39:51.296Z,4.47
2017-04-05T05:40:52.733Z,4.46
2017-04-05T05:41:54.155Z,4.62
2017-04-05T05:42:55.580Z,4.72
2017-04-05T05:43:57.002Z,4.88
2017-04-05T05:44:58.447Z,4.84
2017-04-05T05:45:59.865Z,4.79
2017-04-05T05:47:01.291Z,5.02
2017-04-05T05:48:02.710Z,4.76
2017-04-05T05:49:04.144Z,4.64
2017-04-05T05:50:05.574Z,4.59
2017-04-05T05:51:07.027Z,4.57
2017-04-05T05:52:08.449Z,4.50
2017-04-05T05:53:09.874Z,4.47
2017-04-05T05:54:11.296Z,4.46
2017-04-05T05:55:12.722Z,4.65
2017-04-05T05:56:14.143Z,4.72
2017-04-05T05:57:15.593Z,4.88
2017-04-05T05:58:17.020Z,4.75
2017-04-05T05:59:18.441Z,4.61
2017-04-05T06:00:19.862Z,4.52
2017-04-05T06:01:21.289Z,4.47
2017-04-05T06:02:22.717Z,4.65
2017-04-05T06:03:24.254Z,4.79
2017-04-05T06:04:25.674Z,4.86
2017-04-05T06:05:27.127Z,4.73
2017-04-05T06:06:28.555Z,4.88
2017-04-05T06:07:30.038Z,5.10
2017-04-05T06:08:31.465Z,5.14
2017-04-05T06:09:32.893Z,5.38
2017-04-05T06:10:34.323Z,5.48
2017-04-05T06:11:35.741Z,5.49
2017-04-05T06:12:37.164Z,5.55
2017-04-05T06:13:38.589Z,5.85
2017-04-05T06:14:40.023Z,5.92
2017-04-05T06:15:41.538Z,5.96
2017-04-05T06:16:42.960Z,6.00
2017-04-05T06:17:45.173Z,5.78
2017-04-05T06:18:46.590Z,5.96
2017-04-05T06:19:48.013Z,6.03
2017-04-05T06:20:49.442Z,5.96
2017-04-05T06:21:50.860Z,5.85
2017-04-05T06:22:52.284Z,5.82
2017-04-05T06:23:53.706Z,5.82
2017-04-05T06:24:55.128Z,5.96
2017-04-05T06:25:56.555Z,5.83
2017-04-05T06:26:57.976Z,6.00
2017-04-05T06:27:59.400Z,6.04
2017-04-05T06:29:00.829Z,6.25
2017-04-05T06:30:02.258Z,6.36
2017-04-05T06:31:03.690Z,6.58
2017-04-05T06:32:05.123Z,6.69
2017-04-05T06:33:06.545Z,6.91
2017-04-05T06:34:07.971Z,6.79
2017-04-05T06:35:09.400Z,6.98
2017-04-05T06:36:10.847Z,6.94
2017-04-05T06:37:12.272Z,7.15
2017-04-05T06:38:13.689Z,7.32
2017-04-05T06:39:15.123Z,7.41
2017-04-05T06:40:16.542Z,7.07
2017-04-05T06:41:17.974Z,6.66
2017-04-05T06:42:19.401Z,6.59
2017-04-05T06:43:20.829Z,6.66
2017-04-05T06:44:22.275Z,6.59
2017-04-05T06:45:23.692Z,6.56
2017-04-05T06:46:25.124Z,6.47
2017-04-05T06:47:26.548Z,6.58
2017-04-05T06:48:27.977Z,6.51
2017-04-05T06:49:29.401Z,6.58
2017-04-05T06:50:30.832Z,6.56
2017-04-05T06:51:32.271Z,6.68
2017-04-05T06:52:34.281Z,6.77
2017-04-05T06:53:35.704Z,6.72
2017-04-05T06:54:37.125Z,6.66
2017-04-05T06:55:38.548Z,6.81
2017-04-05T06:56:39.976Z,7.02
2017-04-05T06:57:41.407Z,7.02
2017-04-05T06:58:43.632Z,7.35
2017-04-05T06:59:45.063Z,7.47
2017-04-05T07:00:46.494Z,7.45
2017-04-05T07:01:47.925Z,7.87
2017-04-05T07:02:49.355Z,8.21
2017-04-05T07:03:50.820Z,8.36
2017-04-05T07:04:52.238Z,8.47
2017-04-05T07:05:53.676Z,8.47
2017-04-05T07:06:55.120Z,8.55
2017-04-05T07:07:56.551Z,8.73
2017-04-05T07:08:57.983Z,8.83
2017-04-05T07:09:59.418Z,8.81
2017-04-05T07:11:00.848Z,8.75
2017-04-05T07:12:02.270Z,8.93
2017-04-05T07:13:03.700Z,9.10
2017-04-05T07:14:06.083Z,9.42
2017-04-05T07:15:07.509Z,9.64
2017-04-05T07:16:08.947Z,9.60
2017-04-05T07:17:10.372Z,9.35
2017-04-05T07:18:11.813Z,9.45
2017-04-05T07:19:13.237Z,9.50
2017-04-05T07:20:14.675Z,9.96
2017-04-05T07:21:16.107Z,10.03
2017-04-05T07:22:17.534Z,10.32
2017-04-05T07:23:18.964Z,10.53
2017-04-05T07:24:20.396Z,10.52
2017-04-05T07:25:21.832Z,10.34
2017-04-05T07:26:23.254Z,10.52
2017-04-05T07:27:24.682Z,10.58
2017-04-05T07:28:26.125Z,10.30
2017-04-05T07:29:27.553Z,10.46
2017-04-05T07:30:28.987Z,10.53
2017-04-05T07:31:30.414Z,10.47
2017-04-05T07:32:31.845Z,10.30
2017-04-05T07:33:33.282Z,10.28
2017-04-05T07:34:34.711Z,10.33
2017-04-05T07:35:36.141Z,10.40
2017-04-05T07:36:37.576Z,10.33
2017-04-05T07:37:39.006Z,10.10
2017-04-05T07:38:40.434Z,10.37
2017-04-05T07:39:41.861Z,10.40
2017-04-05T07:40:43.408Z,10.47
2017-04-05T07:41:44.834Z,10.42
2017-04-05T07:42:46.267Z,10.51
2017-04-05T07:43:47.732Z,10.73
2017-04-05T07:44:49.171Z,10.68
2017-04-05T07:45:50.606Z,10.63
2017-04-05T07:46:52.064Z,10.53
2017-04-05T07:47:53.497Z,10.56
2017-04-05T07:48:54.934Z,10.53
2017-04-05T07:49:56.378Z,10.40
2017-04-05T07:50:57.799Z,10.46
2017-04-05T07:51:59.228Z,10.43
2017-04-05T07:53:00.662Z,10.55
2017-04-05T07:54:02.097Z,10.39
2017-04-05T07:55:03.531Z,10.36
2017-04-05T07:56:04.965Z,10.53
2017-04-05T07:57:06.400Z,10.55
2017-04-05T07:58:07.917Z,10.65
2017-04-05T07:59:09.389Z,10.66
2017-04-05T08:00:10.851Z,10.63
2017-04-05T08:01:12.263Z,10.62
2017-04-05T08:02:13.697Z,10.59
2017-04-05T08:03:15.124Z,10.65
2017-04-05T08:04:16.557Z,10.76
2017-04-05T08:05:18.703Z,10.92
2017-04-05T08:06:20.136Z,10.91
2017-04-05T08:07:21.568Z,10.88
2017-04-05T08:08:22.998Z,11.09
2017-04-05T08:09:24.430Z,11.32
2017-04-05T08:10:25.873Z,11.44
2017-04-05T08:11:27.317Z,11.54
2017-04-05T08:12:28.748Z,11.34
2017-04-05T08:13:30.214Z,11.25
2017-04-05T08:14:31.652Z,11.32
2017-04-05T08:15:33.087Z,11.19
2017-04-05T08:16:34.519Z,11.24
2017-04-05T08:17:35.947Z,11.17
2017-04-05T08:18:37.379Z,11.39
2017-04-05T08:19:38.809Z,11.47
2017-04-05T08:20:40.237Z,11.41
2017-04-05T08:21:41.664Z,11.41
2017-04-05T08:22:43.097Z,11.65
2017-04-05T08:23:44.527Z,11.80
2017-04-05T08:24:45.957Z,11.93
2017-04-05T08:25:47.388Z,11.86
2017-04-05T08:26:48.817Z,11.78
2017-04-05T08:27:50.244Z,11.77
2017-04-05T08:28:51.675Z,11.59
2017-04-05T08:29:53.108Z,11.59
2017-04-05T08:30:54.552Z,11.65
2017-04-05T08:31:55.985Z,11.83
2017-04-05T08:32:57.416Z,11.67
2017-04-05T08:33:58.848Z,11.52
2017-04-05T08:35:00.273Z,11.31
2017-04-05T08:36:01.711Z,11.34
2017-04-05T08:37:03.143Z,11.41
2017-04-05T08:38:04.574Z,11.44
2017-04-05T08:39:06.003Z,11.34
2017-04-05T08:40:07.438Z,11.28
2017-04-05T08:41:08.867Z,11.52
2017-04-05T08:42:10.290Z,11.41
2017-04-05T08:43:11.719Z,11.61
2017-04-05T08:44:13.153Z,11.59
2017-04-05T08:45:15.129Z,11.75
2017-04-05T08:46:16.562Z,11.80
2017-04-05T08:47:18.002Z,11.78
2017-04-05T08:48:19.432Z,11.56
2017-04-05T08:49:20.864Z,11.72
2017-04-05T08:50:22.304Z,11.75
2017-04-05T08:51:23.733Z,11.80
2017-04-05T08:52:25.166Z,11.59
2017-04-05T08:53:26.604Z,11.64
2017-04-05T08:54:28.035Z,11.64
2017-04-05T08:55:29.467Z,11.59
2017-04-05T08:56:30.900Z,11.75
2017-04-05T08:57:32.337Z,11.67
2017-04-05T08:58:33.765Z,11.74
2017-04-05T08:59:35.205Z,11.59
2017-04-05T09:00:36.635Z,11.59
2017-04-05T09:01:39.369Z,11.52
2017-04-05T09:02:40.803Z,11.50
2017-04-05T09:03:42.234Z,11.62
2017-04-05T09:04:43.800Z,11.61
2017-04-05T09:05:45.235Z,11.74
2017-04-05T09:06:46.661Z,11.77
2017-04-05T09:07:48.153Z,11.87
2017-04-05T09:08:49.597Z,11.78
2017-04-05T09:09:51.029Z,11.90
2017-04-05T09:10:52.474Z,12.04
2017-04-05T09:11:53.907Z,11.93
2017-04-05T09:12:55.348Z,11.97
2017-04-05T09:13:56.783Z,11.78
2017-04-05T09:14:58.221Z,11.89
2017-04-05T09:15:59.670Z,11.74
2017-04-05T09:17:01.100Z,11.80
2017-04-05T09:18:02.534Z,11.99
2017-04-05T09:19:03.997Z,11.96
2017-04-05T09:20:05.435Z,11.97
2017-04-05T09:21:06.874Z,11.99
2017-04-05T09:22:08.335Z,11.85
2017-04-05T09:23:09.779Z,11.90
2017-04-05T09:24:11.202Z,11.93
2017-04-05T09:25:12.637Z,11.85
2017-04-05T09:26:14.072Z,11.75
2017-04-05T09:27:15.512Z,11.89
2017-04-05T09:28:16.956Z,11.90
2017-04-05T09:29:18.383Z,11.87
2017-04-05T09:30:19.853Z,11.72
2017-04-05T09:31:21.293Z,11.75
2017-04-05T09:32:22.732Z,11.78
2017-04-05T09:33:24.164Z,11.77
2017-04-05T09:34:25.647Z,11.97
2017-04-05T09:35:27.080Z,11.94
2017-04-05T09:36:29.442Z,12.06
2017-04-05T09:37:30.878Z,12.01
2017-04-05T09:38:32.314Z,11.90
2017-04-05T09:39:33.756Z,11.96
2017-04-05T09:40:35.184Z,11.93
2017-04-05T09:41:36.617Z,11.96
2017-04-05T09:42:38.054Z,11.97
2017-04-05T09:43:39.483Z,12.11
2017-04-05T09:44:40.917Z,12.13
2017-04-05T09:45:42.346Z,11.90
2017-04-05T09:46:43.774Z,12.05
2017-04-05T09:47:45.207Z,12.23
2017-04-05T09:48:46.638Z,12.49
2017-04-05T09:49:48.073Z,12.56
2017-04-05T09:50:49.506Z,12.56
2017-04-05T09:51:50.939Z,12.52
2017-04-05T09:52:52.376Z,12.71
2017-04-05T09:53:53.805Z,12.78
2017-04-05T09:54:55.241Z,12.79
2017-04-05T09:55:56.678Z,12.74
2017-04-05T09:56:58.109Z,12.57
2017-04-05T09:57:59.546Z,12.71
2017-04-05T09:59:00.977Z,12.93
2017-04-05T10:00:02.413Z,12.84
2017-04-05T10:01:03.845Z,12.97
2017-04-05T10:02:05.278Z,12.93
2017-04-05T10:03:06.705Z,12.81
2017-04-05T10:04:08.134Z,13.02
2017-04-05T10:05:09.565Z,13.18
2017-04-05T10:06:11.003Z,13.41
2017-04-05T10:07:13.402Z,13.21
2017-04-05T10:08:14.842Z,12.99
2017-04-05T10:09:16.273Z,13.03
2017-04-05T10:10:17.707Z,13.12
2017-04-05T10:11:19.151Z,12.95
2017-04-05T10:12:20.583Z,13.00
2017-04-05T10:13:22.010Z,13.00
2017-04-05T10:14:23.447Z,12.99
2017-04-05T10:15:24.883Z,13.00
2017-04-05T10:16:26.312Z,13.20
2017-04-05T10:17:27.748Z,13.14
2017-04-05T10:18:29.182Z,13.47
2017-04-05T10:19:30.609Z,13.51
2017-04-05T10:20:32.053Z,13.24
2017-04-05T10:21:33.483Z,13.22
2017-04-05T10:22:34.923Z,13.47
2017-04-05T10:23:36.355Z,13.65
2017-04-05T10:24:37.797Z,13.37
2017-04-05T10:25:39.228Z,13.32
2017-04-05T10:26:40.656Z,13.20
2017-04-05T10:27:42.094Z,12.97
2017-04-05T10:28:43.526Z,13.17
2017-04-05T10:29:44.960Z,13.29
2017-04-05T10:30:46.395Z,13.58
2017-04-05T10:31:47.828Z,13.77
2017-04-05T10:32:49.265Z,13.63
2017-04-05T10:33:50.699Z,13.84
2017-04-05T10:34:52.135Z,13.69
2017-04-05T10:35:53.573Z,13.71
2017-04-05T10:36:55.014Z,13.87
2017-04-05T10:37:56.450Z,13.76
2017-04-05T10:38:57.883Z,13.89
2017-04-05T10:39:59.347Z,14.10
2017-04-05T10:41:00.758Z,14.07
2017-04-05T10:42:02.193Z,14.01
2017-04-05T10:43:03.629Z,13.99
2017-04-05T10:44:05.067Z,13.98
2017-04-05T10:45:06.500Z,13.92
2017-04-05T10:46:07.931Z,13.89
2017-04-05T10:47:09.369Z,13.84
2017-04-05T10:48:11.343Z,13.94
2017-04-05T10:49:12.785Z,13.79
2017-04-05T10:50:14.206Z,13.70
2017-04-05T10:51:15.645Z,13.47
2017-04-05T10:52:17.912Z,13.87
2017-04-05T10:53:19.355Z,13.95
2017-04-05T10:54:20.784Z,13.43
2017-04-05T10:55:22.220Z,13.51
2017-04-05T10:56:23.665Z,13.49
2017-04-05T10:57:25.094Z,13.76
2017-04-05T10:58:26.539Z,13.94
2017-04-05T10:59:27.969Z,13.95
2017-04-05T11:00:29.398Z,13.74
2017-04-05T11:01:30.835Z,13.96
2017-04-05T11:02:32.266Z,13.83
2017-04-05T11:03:33.699Z,13.88
2017-04-05T11:04:35.133Z,13.80
2017-04-05T11:05:36.579Z,13.94
2017-04-05T11:06:38.021Z,13.76
2017-04-05T11:07:39.456Z,13.46
2017-04-05T11:08:40.907Z,13.36
2017-04-05T11:09:42.338Z,13.24
2017-04-05T11:10:43.779Z,13.36
2017-04-05T11:11:45.215Z,13.41
2017-04-05T11:12:46.646Z,13.40
2017-04-05T11:13:48.077Z,13.41
2017-04-05T11:14:49.507Z,13.47
2017-04-05T11:15:50.942Z,13.69
2017-04-05T11:16:52.371Z,13.58
2017-04-05T11:17:53.809Z,13.70
2017-04-05T11:18:55.245Z,13.84
2017-04-05T11:19:56.687Z,14.09
2017-04-05T11:20:58.125Z,14.57
2017-04-05T11:21:59.560Z,14.93
2017-04-05T11:23:00.991Z,15.06
2017-04-05T11:24:02.426Z,15.13
2017-04-05T11:25:03.864Z,15.33
2017-04-05T11:26:05.296Z,15.85
2017-04-05T11:27:06.723Z,16.30
2017-04-05T11:28:08.166Z,16.52
2017-04-05T11:29:09.598Z,16.35
2017-04-05T11:30:11.038Z,16.23
2017-04-05T11:31:12.472Z,15.24
2017-04-05T11:32:13.906Z,14.43
2017-04-05T11:33:15.336Z,14.32
2017-04-05T11:34:16.776Z,14.28
2017-04-05T11:35:18.216Z,14.38
2017-04-05T11:36:20.428Z,14.32
2017-04-05T11:37:21.870Z,14.75
2017-04-05T11:38:23.324Z,14.74
2017-04-05T11:39:24.746Z,14.84
2017-04-05T11:40:26.180Z,14.78
2017-04-05T11:41:27.621Z,14.84
2017-04-05T11:42:29.597Z,14.54
2017-04-05T11:43:31.040Z,14.13
2017-04-05T11:44:32.466Z,14.34
2017-04-05T11:45:33.902Z,14.25
2017-04-05T11:46:35.332Z,13.87
2017-04-05T11:47:36.762Z,14.25
2017-04-05T11:48:38.195Z,14.32
2017-04-05T11:49:39.631Z,14.12
2017-04-05T11:50:41.074Z,13.98
2017-04-05T11:51:42.504Z,14.31
2017-04-05T11:52:43.938Z,14.38
2017-04-05T11:53:45.374Z,14.57
2017-04-05T11:54:46.808Z,15.26
2017-04-05T11:55:48.241Z,15.68
2017-04-05T11:56:49.672Z,15.57
2017-04-05T11:57:51.106Z,15.54
2017-04-05T11:58:52.545Z,15.89
2017-04-05T11:59:53.979Z,16.23
2017-04-05T12:00:55.415Z,16.04
2017-04-05T12:01:56.849Z,16.01
2017-04-05T12:02:58.289Z,15.88
2017-04-05T12:03:59.730Z,16.23
2017-04-05T12:05:01.163Z,16.25
2017-04-05T12:06:02.599Z,16.23
2017-04-05T12:07:04.034Z,16.30
2017-04-05T12:08:05.468Z,16.14
2017-04-05T12:09:06.904Z,15.96
2017-04-05T12:10:08.361Z,15.70
2017-04-05T12:11:09.778Z,15.33
2017-04-05T12:12:11.207Z,15.15
2017-04-05T12:13:12.644Z,15.20
2017-04-05T12:14:14.074Z,15.13
2017-04-05T12:15:15.505Z,14.83
2017-04-05T12:16:16.947Z,14.98
2017-04-05T12:17:18.383Z,15.28
2017-04-05T12:18:19.817Z,15.23
2017-04-05T12:19:21.257Z,15.43
2017-04-05T12:20:22.696Z,15.57
2017-04-05T12:21:24.122Z,15.79
2017-04-05T12:22:25.555Z,15.64
2017-04-05T12:23:26.991Z,15.41
2017-04-05T12:24:28.424Z,15.38
2017-04-05T12:25:29.860Z,15.05
2017-04-05T12:26:31.296Z,15.06
2017-04-05T12:27:32.734Z,14.57
2017-04-05T12:28:34.175Z,14.57
2017-04-05T12:29:35.607Z,14.74
2017-04-05T12:30:37.065Z,14.80
2017-04-05T12:31:38.501Z,14.62
2017-04-05T12:32:39.940Z,14.56
2017-04-05T12:33:41.379Z,14.68
2017-04-05T12:34:42.818Z,14.67
2017-04-05T12:35:44.248Z,15.11
2017-04-05T12:36:45.688Z,15.64
2017-04-05T12:37:47.119Z,15.61
2017-04-05T12:38:48.556Z,15.39
2017-04-05T12:39:50.001Z,15.08
2017-04-05T12:40:51.446Z,14.53
2017-04-05T12:41:52.881Z,14.29
2017-04-05T12:44:52.698Z,14.84
2017-04-05T12:45:54.140Z,15.20
2017-04-05T12:46:55.570Z,15.21
2017-04-05T12:47:57.000Z,15.45
2017-04-05T12:48:58.454Z,15.19
2017-04-05T12:49:59.884Z,15.45
2017-04-05T12:51:01.319Z,15.76
2017-04-05T12:52:02.751Z,15.99
2017-04-05T12:53:04.186Z,16.33
2017-04-05T12:54:05.616Z,15.42
2017-04-05T12:55:07.046Z,15.02
2017-04-05T12:56:08.483Z,14.50
2017-04-05T12:57:09.919Z,14.68
2017-04-05T12:58:11.359Z,14.62
2017-04-05T12:59:12.793Z,14.71
2017-04-05T13:00:14.220Z,14.78
2017-04-05T13:01:15.654Z,14.56
2017-04-05T13:02:17.081Z,14.72
2017-04-05T13:03:18.528Z,14.94
2017-04-05T13:04:19.970Z,14.93
2017-04-05T13:05:21.406Z,15.15
2017-04-05T13:06:22.841Z,15.23
2017-04-05T13:07:24.287Z,15.61
2017-04-05T13:08:25.712Z,15.85
2017-04-05T13:09:27.157Z,15.88
2017-04-05T13:10:28.594Z,15.67
2017-04-05T13:11:30.036Z,15.02
2017-04-05T13:12:31.471Z,14.68
2017-04-05T13:13:32.908Z,14.57
2017-04-05T13:14:34.340Z,14.53
2017-04-05T13:15:35.777Z,14.25
2017-04-05T13:16:37.215Z,14.10
2017-04-05T13:17:38.654Z,14.31
2017-04-05T13:18:40.098Z,14.25
2017-04-05T13:19:41.530Z,14.14
2017-04-05T13:20:42.962Z,14.35
2017-04-05T13:21:44.410Z,14.69
2017-04-05T13:22:45.851Z,15.28
2017-04-05T13:23:47.283Z,16.53
2017-04-05T13:24:48.725Z,17.99
2017-04-05T13:25:50.167Z,18.33
2017-04-05T13:26:51.598Z,17.84
2017-04-05T13:27:53.033Z,16.30